Yuedian 58 — BYFE — position and weather

sailwx.info

Track history (hours):
 
Tides and Currents Weather Stations Pressure Air Temp Water Temp Dewpoint Dewpoint Depression Visibility Wind Speed Wind Dir Waves Ship Positions

Yuedian 58

Last reported at 2017-Mar-23 08:21 UTC. Time now 2017-Mar-29 07:08 UTC.
Position N 37°44' E 122°40'.

Length 190 m; draft 12.8 m.

Type: Ship. MMSI: 414008000.

Date/timePositionNaut miles runAvg speedWind from/ knotsBaromVisibWave heightAir tempDewpointWater temp
2017-Mar-23 08:21N 37°44' E 122°40'1312.8
2017-Mar-23 07:18N 37°50' E 122°26'1113.0
2017-Mar-23 06:27N 37°56' E 122°13'1213.3
2017-Mar-23 05:33N 38°02' E 122°00'1413.5
2017-Mar-23 04:32N 38°08' E 121°45'1313.5
2017-Mar-23 03:34N 38°15' E 121°30'2613.2
2017-Mar-23 01:33N 38°29' E 121°02'1111.2
2017-Mar-23 00:33N 38°35' E 120°50'1611.4
2017-Mar-22 23:11N 38°36' E 120°30'  
2017-Mar-17 22:04N 38°29' E 121°13'713.8
2017-Mar-17 21:33N 38°25' E 121°21'1413.8
2017-Mar-17 20:33N 38°19' E 121°37'  
Track history (hours):
 
Tides and Currents Weather Stations Pressure Air Temp Water Temp Dewpoint Dewpoint Depression Visibility Wind Speed Wind Dir Waves Ship Positions

Yuedian 58

Last reported at 2017-Mar-23 08:21 UTC. Time now 2017-Mar-29 07:08 UTC.
Position N 37°44' E 122°40'.

Length 190 m; draft 12.8 m.

Type: Ship. MMSI: 414008000.

Date/timePositionNaut miles runAvg speedWind from/ knotsBaromVisibWave heightAir tempDewpointWater temp
2017-Mar-23 08:21N 37°44' E 122°40'1312.8
2017-Mar-23 07:18N 37°50' E 122°26'1113.0
2017-Mar-23 06:27N 37°56' E 122°13'1213.3
2017-Mar-23 05:33N 38°02' E 122°00'1413.5
2017-Mar-23 04:32N 38°08' E 121°45'1313.5
2017-Mar-23 03:34N 38°15' E 121°30'2613.2
2017-Mar-23 01:33N 38°29' E 121°02'1111.2
2017-Mar-23 00:33N 38°35' E 120°50'1611.4
2017-Mar-22 23:11N 38°36' E 120°30'  
2017-Mar-17 22:04N 38°29' E 121°13'713.8
2017-Mar-17 21:33N 38°25' E 121°21'1413.8
2017-Mar-17 20:33N 38°19' E 121°37'  

Dump ship's entire track history